Pagrindinis puslapis
METAR-TAF:

METAR-TAF

Oro uostai :

Viljavisensijas, Kolumbija

platuma: 04-10N, ilguma: 073-37W, Aukštis: 423 m

Dabartinis oras

Ataskaita buvo paskelbta 31 minutes, ne 13:00 UTC
Vėjas 3 kt iš Pietų/Pietvakarių
Temperatūra 29°C
Drėgmė 58%
Slėgis 1016 hPa
Matomumas: 9000 m
Mažai debesys ne aukštis 2300 ft
Išsisklaidę debesys ne aukštis 9000 ft

METAR: SKVV 281300Z 21003KT 9000 FEW023 SCT090 29/20 A2999 RMK HZ

Laikas: 08:31 (13:31 UTC)


TAF: trūkstamas

Orai ataskaitas ir orų prognozės (METAR, TAF).

turimą stotys yra geltonos ir raudonos taškus žemėlapyje.

Perkelti pele per norėdami pamatyti stoties vardą.

Tada spustelėkite, norėdami matyti oro stebėjimo ir prognozės.

Norėdami pakeisti žemėlapį: spustelėkite ant žalios mygtukų su juodo kryžiaus žemyn,; žalią mygtuką su brūkšneliu, jei norite nutolinti; arba žalių rodyklių gretimoms žemėlapius.


METAR-TAF: